createdAt,value
2023-02-06T00:01:05.136Z,100169.09
2023-02-06T00:04:29.473Z,100168.28
2023-02-06T00:08:27.238Z,100171.05
2023-02-06T00:12:10.726Z,100174.72
2023-02-06T00:15:35.638Z,100180.78
2023-02-06T00:19:31.837Z,100169.73
2023-02-06T00:23:14.656Z,100174.15
2023-02-06T00:26:38.637Z,100177.15
2023-02-06T00:30:17.523Z,100171.64
2023-02-06T00:33:54.190Z,100174.33
2023-02-06T00:37:31.812Z,100174.20
2023-02-06T00:41:09.753Z,100172.12
2023-02-06T00:45:07.375Z,100170.20
2023-02-06T00:48:50.904Z,100165.26
2023-02-06T00:52:15.045Z,100165.34
2023-02-06T00:56:16.142Z,100152.04
2023-02-06T00:59:58.962Z,100146.77
2023-02-06T01:03:24.345Z,100147.20
2023-02-06T01:07:22.119Z,100146.01
2023-02-06T01:11:13.707Z,100137.73
2023-02-06T01:14:39.382Z,100141.90
2023-02-06T01:18:15.570Z,100136.69
2023-02-06T01:21:53.687Z,100133.64
2023-02-06T01:25:49.767Z,100147.89
2023-02-06T01:29:32.729Z,100140.55
2023-02-06T01:33:16.173Z,100139.00
2023-02-06T01:37:01.822Z,100138.65
2023-02-06T01:40:28.154Z,100132.82
2023-02-06T01:44:17.379Z,100129.66
2023-02-06T01:47:44.536Z,100122.64
2023-02-06T01:51:41.422Z,100113.98
2023-02-06T01:55:06.761Z,100107.30
2023-02-06T01:58:46.884Z,100102.36
2023-02-06T02:02:24.643Z,100114.19
2023-02-06T02:06:05.929Z,100111.98
2023-02-06T02:09:56.491Z,100113.95
2023-02-06T02:13:20.803Z,100113.40
2023-02-06T02:17:40.635Z,100116.64
2023-02-06T02:21:38.869Z,100108.95
2023-02-06T02:25:59.684Z,100100.56
2023-02-06T02:29:48.648Z,100085.61
2023-02-06T02:33:28.346Z,100071.80
2023-02-06T02:37:24.980Z,100060.38
2023-02-06T02:41:19.411Z,100059.26
2023-02-06T02:44:57.378Z,100057.50
2023-02-06T02:48:45.060Z,100053.73
2023-02-06T02:52:30.810Z,100058.38
2023-02-06T02:55:55.991Z,100072.96
2023-02-06T02:59:51.794Z,100079.10
2023-02-06T03:03:22.789Z,100078.55
2023-02-06T03:07:15.481Z,100076.41
2023-02-06T03:11:15.796Z,100085.71
2023-02-06T03:14:48.270Z,100081.61
2023-02-06T03:18:24.413Z,100090.14
2023-02-06T03:22:15.870Z,100089.33
2023-02-06T03:25:44.353Z,100095.02
2023-02-06T03:29:19.700Z,100100.55
2023-02-06T03:33:07.448Z,100111.23
2023-02-06T03:36:52.798Z,100110.70
2023-02-06T03:40:18.301Z,100106.34
2023-02-06T03:43:55.417Z,100113.27
2023-02-06T03:47:53.504Z,100119.41
2023-02-06T03:52:10.913Z,100117.98
2023-02-06T03:55:38.642Z,100112.26
2023-02-06T03:59:14.301Z,100100.67
2023-02-06T04:02:53.493Z,100101.92
2023-02-06T04:06:28.849Z,100106.21
2023-02-06T04:10:06.868Z,100106.24
2023-02-06T04:14:03.390Z,100108.48
2023-02-06T04:17:59.541Z,100102.86
2023-02-06T04:21:28.239Z,100104.79
2023-02-06T04:25:27.971Z,100107.21
2023-02-06T04:29:12.212Z,100100.82
2023-02-06T04:32:36.652Z,100102.09
2023-02-06T04:36:14.466Z,100099.70
2023-02-06T04:40:11.462Z,100111.19
2023-02-06T04:43:39.519Z,100104.72
2023-02-06T04:47:13.809Z,100106.73
2023-02-06T04:50:51.867Z,100102.86
2023-02-06T04:54:31.216Z,100099.38
2023-02-06T04:58:07.987Z,100097.11
2023-02-06T05:01:46.148Z,100095.46
2023-02-06T05:05:41.005Z,100095.48
2023-02-06T05:09:06.074Z,100089.70
2023-02-06T05:12:42.997Z,100086.42
2023-02-06T05:16:20.590Z,100092.54
2023-02-06T05:19:58.720Z,100094.86
2023-02-06T05:23:54.909Z,100096.96
2023-02-06T05:27:37.770Z,100099.19
2023-02-06T05:31:21.540Z,100093.91
2023-02-06T05:34:45.879Z,100092.10
2023-02-06T05:38:43.565Z,100093.89
2023-02-06T05:42:11.446Z,100093.63
2023-02-06T05:46:06.515Z,100097.38
2023-02-06T05:49:30.316Z,100102.23
2023-02-06T05:53:28.285Z,100105.84
2023-02-06T05:57:11.004Z,100106.64
2023-02-06T06:00:34.966Z,100111.17
2023-02-06T06:04:13.336Z,100111.04
2023-02-06T06:08:09.329Z,100110.06
2023-02-06T06:11:34.334Z,100114.86
2023-02-06T06:15:29.902Z,100115.12
2023-02-06T06:19:12.586Z,100114.66
2023-02-06T06:22:36.466Z,100113.08
2023-02-06T06:26:16.147Z,100112.23
2023-02-06T06:30:11.466Z,100111.60
2023-02-06T06:33:36.446Z,100113.20
2023-02-06T06:37:32.219Z,100112.02
2023-02-06T06:41:15.749Z,100116.05
2023-02-06T06:44:58.480Z,100109.00
2023-02-06T06:48:41.367Z,100109.55
2023-02-06T06:54:10.113Z,100118.38
2023-02-06T06:58:06.687Z,100124.76
2023-02-06T07:01:53.332Z,100113.88
2023-02-06T07:05:15.993Z,100117.60
2023-02-06T07:09:12.462Z,100112.50
2023-02-06T07:12:54.408Z,100110.65
2023-02-06T07:16:35.376Z,100110.77
2023-02-06T07:19:57.541Z,100117.74
2023-02-06T07:23:38.818Z,100117.03
2023-02-06T07:27:13.278Z,100121.21
2023-02-06T07:30:50.760Z,100117.45
2023-02-06T07:34:47.105Z,100120.66
2023-02-06T07:38:29.215Z,100120.27
2023-02-06T07:42:11.332Z,100115.10
2023-02-06T07:46:12.778Z,100113.23
2023-02-06T07:49:34.947Z,100114.62
2023-02-06T07:53:12.752Z,100116.98
2023-02-06T07:57:09.789Z,100113.71
2023-02-06T08:00:50.978Z,100108.77
2023-02-06T08:04:34.953Z,100103.05
2023-02-06T08:08:16.334Z,100102.98
2023-02-06T08:11:38.817Z,100101.63
2023-02-06T08:15:35.625Z,100100.81
2023-02-06T08:18:57.713Z,100106.16
2023-02-06T08:22:54.917Z,100112.57
2023-02-06T08:26:18.872Z,100116.06
2023-02-06T08:29:54.591Z,100119.38
2023-02-06T08:33:51.745Z,100115.12
2023-02-06T08:37:14.205Z,100116.69
2023-02-06T08:41:17.536Z,100110.36
2023-02-06T08:44:58.590Z,100109.23
2023-02-06T08:48:20.565Z,100115.36
2023-02-06T08:51:59.135Z,100118.89
2023-02-06T08:55:59.689Z,100111.91
2023-02-06T08:59:40.949Z,100117.05
2023-02-06T09:03:22.586Z,100119.00
2023-02-06T09:06:48.856Z,100121.02
2023-02-06T09:10:27.746Z,100117.86
2023-02-06T09:14:02.783Z,100113.84
2023-02-06T09:17:56.933Z,100119.23
2023-02-06T09:21:26.326Z,100119.30
2023-02-06T09:25:15.510Z,100119.31
2023-02-06T09:29:02.408Z,100122.71
2023-02-06T09:32:43.926Z,100126.00
2023-02-06T09:36:25.111Z,100135.93
2023-02-06T09:39:47.411Z,100141.41
2023-02-06T09:43:25.903Z,100145.27
2023-02-06T09:47:27.900Z,100146.41
2023-02-06T09:51:11.833Z,100148.08
2023-02-06T09:54:45.891Z,100148.85
2023-02-06T09:58:49.618Z,100142.45
2023-02-06T10:02:39.954Z,100139.89
2023-02-06T10:06:33.458Z,100130.39
2023-02-06T10:10:04.987Z,100131.01
2023-02-06T10:13:59.489Z,100129.86
2023-02-06T10:17:32.576Z,100131.36
2023-02-06T10:21:50.253Z,100132.67
2023-02-06T10:25:39.677Z,100121.59
2023-02-06T10:29:01.684Z,100121.81
2023-02-06T10:33:24.762Z,100117.39
2023-02-06T10:37:47.135Z,100117.19
2023-02-06T10:41:46.518Z,100111.31
2023-02-06T10:45:39.061Z,100108.40
2023-02-06T10:49:24.493Z,100115.75
2023-02-06T10:52:48.616Z,100108.52
2023-02-06T10:56:31.717Z,100097.20
2023-02-06T11:00:12.367Z,100096.35
2023-02-06T11:04:20.843Z,100098.21
2023-02-06T11:08:13.100Z,100102.71
2023-02-06T11:11:56.332Z,100100.73
2023-02-06T11:15:27.472Z,100097.40
2023-02-06T11:19:32.925Z,100095.71
2023-02-06T11:22:55.223Z,100099.54
2023-02-06T11:26:32.817Z,100095.13
2023-02-06T11:30:34.342Z,100087.95
2023-02-06T11:33:57.015Z,100082.15
2023-02-06T11:38:05.154Z,100087.65
2023-02-06T11:42:20.077Z,100088.09
2023-02-06T11:45:42.630Z,100073.84
2023-02-06T11:49:38.552Z,100067.43
2023-02-06T11:53:26.055Z,100067.89
2023-02-06T11:57:03.341Z,100064.83
2023-02-06T12:00:51.505Z,100065.09
2023-02-06T12:04:40.012Z,100069.02
2023-02-06T12:08:22.586Z,100063.55
2023-02-06T12:11:51.536Z,100061.33
2023-02-06T12:15:45.465Z,100065.48
2023-02-06T12:19:31.105Z,100067.27
2023-02-06T12:23:06.445Z,100066.11
2023-02-06T12:26:33.616Z,100069.95
2023-02-06T12:30:35.528Z,100080.41
2023-02-06T12:34:10.721Z,100087.57
2023-02-06T12:38:00.500Z,100086.36
2023-02-06T12:41:50.024Z,100086.85
2023-02-06T12:45:45.497Z,100084.64
2023-02-06T12:49:36.369Z,100082.01
2023-02-06T12:53:28.775Z,100080.54
2023-02-06T12:57:03.324Z,100079.18
2023-02-06T13:01:12.063Z,100079.25
2023-02-06T13:05:07.025Z,100077.96
2023-02-06T13:08:39.884Z,100079.78
2023-02-06T13:12:14.666Z,100075.14
2023-02-06T13:15:53.775Z,100084.33
2023-02-06T13:19:37.113Z,100093.45
2023-02-06T13:23:12.445Z,100097.61
2023-02-06T13:26:51.601Z,100089.74
2023-02-06T13:30:30.905Z,100091.48
2023-02-06T13:33:58.258Z,100083.96
2023-02-06T13:38:10.963Z,100089.46
2023-02-06T13:41:52.905Z,100089.63
2023-02-06T13:45:47.415Z,100088.45
2023-02-06T13:49:35.286Z,100085.98
2023-02-06T13:53:15.195Z,100096.42
2023-02-06T13:56:59.856Z,100092.14
2023-02-06T14:00:47.094Z,100091.38
2023-02-06T14:04:15.346Z,100094.64
2023-02-06T14:08:06.607Z,100095.72
2023-02-06T14:12:34.931Z,100095.58
2023-02-06T14:16:30.148Z,100096.08
2023-02-06T14:20:30.405Z,100099.50
2023-02-06T14:24:25.301Z,100098.29
2023-02-06T14:28:29.260Z,100096.25
2023-02-06T14:32:25.977Z,100103.06
2023-02-06T14:36:23.482Z,100106.14
2023-02-06T14:40:20.034Z,100106.84
2023-02-06T14:44:02.022Z,100116.21
2023-02-06T14:47:28.703Z,100117.06
2023-02-06T14:51:02.508Z,100121.85
2023-02-06T14:54:58.732Z,100122.47
2023-02-06T14:58:30.366Z,100125.83
2023-02-06T15:02:24.513Z,100126.27
2023-02-06T15:06:30.309Z,100131.61
2023-02-06T15:09:59.110Z,100138.62
2023-02-06T15:13:52.736Z,100144.60
2023-02-06T15:17:22.805Z,100139.26
2023-02-06T15:21:00.587Z,100135.64
2023-02-06T15:25:26.606Z,100132.55
2023-02-06T15:28:56.651Z,100132.29
2023-02-06T15:32:37.792Z,100130.13
2023-02-06T15:36:04.896Z,100130.59
2023-02-06T15:39:42.173Z,100128.14
2023-02-06T15:43:40.968Z,100127.27
2023-02-06T15:47:07.797Z,100131.20
2023-02-06T15:50:40.859Z,100136.36
2023-02-06T15:54:24.275Z,100138.08
2023-02-06T15:57:58.638Z,100140.77
2023-02-06T16:01:56.885Z,100143.31
2023-02-06T16:05:40.846Z,100155.27
2023-02-06T16:09:07.519Z,100162.80
2023-02-06T16:12:43.425Z,100159.98
2023-02-06T16:16:25.192Z,100154.62
2023-02-06T16:20:03.123Z,100150.95
2023-02-06T16:23:48.995Z,100158.99
2023-02-06T16:27:32.825Z,100169.71
2023-02-06T16:31:14.727Z,100175.15
2023-02-06T16:34:56.309Z,100169.66
2023-02-06T16:38:18.982Z,100172.63
2023-02-06T16:41:56.261Z,100181.30
2023-02-06T16:45:34.078Z,100190.36
2023-02-06T16:49:14.385Z,100197.23
2023-02-06T16:52:58.745Z,100201.39
2023-02-06T16:56:46.458Z,100199.29
2023-02-06T17:00:33.771Z,100207.19
2023-02-06T17:04:15.425Z,100215.69
2023-02-06T17:07:57.000Z,100213.83
2023-02-06T17:11:38.335Z,100214.94
2023-02-06T17:15:19.963Z,100214.08
2023-02-06T17:18:42.112Z,100215.81
2023-02-06T17:22:20.810Z,100218.80
2023-02-06T17:26:22.184Z,100221.98
2023-02-06T17:30:03.740Z,100224.95
2023-02-06T17:33:25.918Z,100227.85
2023-02-06T17:37:08.044Z,100224.06
2023-02-06T17:40:41.913Z,100224.05
2023-02-06T17:44:38.282Z,100218.34
2023-02-06T17:48:19.189Z,100218.19
2023-02-06T17:51:43.267Z,100219.05
2023-02-06T17:55:38.253Z,100229.17
2023-02-06T17:59:01.180Z,100240.42
2023-02-06T18:02:38.059Z,100241.06
2023-02-06T18:06:35.858Z,100236.69
2023-02-06T18:09:58.015Z,100240.67
2023-02-06T18:13:55.361Z,100241.04
2023-02-06T18:17:18.693Z,100237.17
2023-02-06T18:21:15.529Z,100231.70
2023-02-06T18:24:37.453Z,100240.61
2023-02-06T18:28:17.389Z,100242.57
2023-02-06T18:32:12.650Z,100248.23
2023-02-06T18:35:45.111Z,100249.19
2023-02-06T18:39:13.521Z,100244.32
2023-02-06T18:42:56.330Z,100234.92
2023-02-06T18:46:28.444Z,100226.84
2023-02-06T18:50:06.359Z,100233.80
2023-02-06T18:54:02.674Z,100235.64
2023-02-06T18:57:24.792Z,100241.56
2023-02-06T19:01:23.894Z,100240.67
2023-02-06T19:04:46.310Z,100235.08
2023-02-06T19:08:23.405Z,100228.61
2023-02-06T19:12:02.622Z,100223.52
2023-02-06T19:15:39.145Z,100226.16
2023-02-06T19:19:17.238Z,100224.74
2023-02-06T19:22:55.403Z,100218.75
2023-02-06T19:26:51.380Z,100214.71
2023-02-06T19:30:13.900Z,100221.33
2023-02-06T19:34:10.726Z,100228.33
2023-02-06T19:37:51.458Z,100237.53
2023-02-06T19:41:19.217Z,100237.14
2023-02-06T19:45:10.577Z,100238.87
2023-02-06T19:48:35.238Z,100236.94
2023-02-06T19:52:14.516Z,100239.61
2023-02-06T19:56:07.680Z,100239.03
2023-02-06T19:59:49.215Z,100247.62
2023-02-06T20:03:11.610Z,100248.98
2023-02-06T20:07:08.004Z,100257.21
2023-02-06T20:10:30.442Z,100256.88
2023-02-06T20:14:09.220Z,100260.50
2023-02-06T20:17:45.225Z,100266.62
2023-02-06T20:21:29.490Z,100272.30
2023-02-06T20:25:00.656Z,100274.14
2023-02-06T20:28:38.086Z,100281.39
2023-02-06T20:32:19.524Z,100279.42
2023-02-06T20:35:53.468Z,100289.44
2023-02-06T20:39:50.457Z,100292.46
2023-02-06T20:43:32.110Z,100297.83
2023-02-06T20:47:13.440Z,100296.75
2023-02-06T20:50:58.941Z,100312.08
2023-02-06T20:54:40.477Z,100315.63
2023-02-06T20:58:03.072Z,100324.53
2023-02-06T21:01:40.868Z,100312.70
2023-02-06T21:05:36.593Z,100313.11
2023-02-06T21:09:01.713Z,100325.58
2023-02-06T21:12:55.055Z,100329.04
2023-02-06T21:16:17.595Z,100328.56
2023-02-06T21:19:54.777Z,100336.11
2023-02-06T21:23:33.610Z,100332.36
2023-02-06T21:27:11.369Z,100331.11
2023-02-06T21:31:15.232Z,100337.98
2023-02-06T21:34:37.518Z,100337.09
2023-02-06T21:38:15.372Z,100338.17
2023-02-06T21:42:12.143Z,100340.35
2023-02-06T21:45:32.191Z,100345.88
2023-02-06T21:49:30.360Z,100354.38
2023-02-06T21:52:52.324Z,100358.60
2023-02-06T21:56:30.315Z,100363.14
2023-02-06T22:00:09.883Z,100366.21
2023-02-06T22:03:46.709Z,100356.71
2023-02-06T22:07:41.970Z,100368.56
2023-02-06T22:11:14.382Z,100375.82
2023-02-06T22:15:00.572Z,100387.25
2023-02-06T22:18:23.308Z,100380.00
2023-02-06T22:22:00.304Z,100375.92
2023-02-06T22:25:37.780Z,100375.58
2023-02-06T22:29:17.253Z,100366.60
2023-02-06T22:32:53.597Z,100355.63
2023-02-06T22:36:52.797Z,100353.95
2023-02-06T22:40:33.867Z,100352.59
2023-02-06T22:43:58.879Z,100344.16
2023-02-06T22:47:34.968Z,100335.45
2023-02-06T22:51:15.084Z,100332.58
2023-02-06T22:55:11.987Z,100320.85
2023-02-06T22:58:58.409Z,100327.79
2023-02-06T23:02:20.455Z,100328.48
2023-02-06T23:06:04.124Z,100326.42
2023-02-06T23:09:55.701Z,100323.46
2023-02-06T23:13:20.534Z,100332.54
2023-02-06T23:17:00.804Z,100323.54
2023-02-06T23:20:36.356Z,100320.63
2023-02-06T23:24:12.198Z,100332.12
2023-02-06T23:27:49.122Z,100324.31
2023-02-06T23:31:27.555Z,100327.52
2023-02-06T23:35:04.682Z,100318.02
2023-02-06T23:39:02.135Z,100328.46
2023-02-06T23:42:43.535Z,100324.76
2023-02-06T23:46:25.795Z,100330.39
2023-02-06T23:50:07.699Z,100335.30
2023-02-06T23:53:49.603Z,100335.80
2023-02-06T23:57:12.029Z,100336.50
